sensor_id;sensor_type;location;lat;lon;timestamp;temperature;humidity
55151;DHT22;41041;43.162;20.538;2023-01-10T00:00:32;231.20;2252.80
55151;DHT22;41041;43.162;20.538;2023-01-10T00:03:06;231.20;2252.80
55151;DHT22;41041;43.162;20.538;2023-01-10T00:05:33;231.10;2252.80
55151;DHT22;41041;43.162;20.538;2023-01-10T00:07:58;231.00;2252.80
55151;DHT22;41041;43.162;20.538;2023-01-10T00:10:26;231.00;2252.80
55151;DHT22;41041;43.162;20.538;2023-01-10T00:12:52;230.90;2252.80
55151;DHT22;41041;43.162;20.538;2023-01-10T00:15:37;231.00;2252.80
55151;DHT22;41041;43.162;20.538;2023-01-10T00:18:03;231.00;2252.80
55151;DHT22;41041;43.162;20.538;2023-01-10T00:20:29;231.00;2252.80
55151;DHT22;41041;43.162;20.538;2023-01-10T00:26:16;230.90;2252.80
55151;DHT22;41041;43.162;20.538;2023-01-10T00:28:42;230.80;2252.80
55151;DHT22;41041;43.162;20.538;2023-01-10T00:31:08;230.90;2252.80
55151;DHT22;41041;43.162;20.538;2023-01-10T00:33:36;230.80;2252.80
55151;DHT22;41041;43.162;20.538;2023-01-10T00:36:06;230.90;2252.80
55151;DHT22;41041;43.162;20.538;2023-01-10T00:38:33;230.90;2252.80
55151;DHT22;41041;43.162;20.538;2023-01-10T00:41:00;230.80;2252.80
55151;DHT22;41041;43.162;20.538;2023-01-10T00:43:26;230.80;2252.80
55151;DHT22;41041;43.162;20.538;2023-01-10T00:46:11;230.80;2252.80
55151;DHT22;41041;43.162;20.538;2023-01-10T00:48:37;230.80;2252.80
55151;DHT22;41041;43.162;20.538;2023-01-10T00:51:04;230.80;2252.80
55151;DHT22;41041;43.162;20.538;2023-01-10T00:53:30;230.80;2252.80
55151;DHT22;41041;43.162;20.538;2023-01-10T00:55:56;230.80;2252.80
55151;DHT22;41041;43.162;20.538;2023-01-10T00:58:22;230.80;2252.80
55151;DHT22;41041;43.162;20.538;2023-01-10T01:00:48;230.80;2252.80
55151;DHT22;41041;43.162;20.538;2023-01-10T01:03:16;230.80;2252.80
55151;DHT22;41041;43.162;20.538;2023-01-10T01:05:43;230.90;2252.80
55151;DHT22;41041;43.162;20.538;2023-01-10T01:08:10;230.90;2252.80
55151;DHT22;41041;43.162;20.538;2023-01-10T01:10:36;230.90;2252.80
55151;DHT22;41041;43.162;20.538;2023-01-10T01:16:24;230.80;2252.80
55151;DHT22;41041;43.162;20.538;2023-01-10T01:18:50;230.80;2252.80
55151;DHT22;41041;43.162;20.538;2023-01-10T01:21:15;230.80;2252.80
55151;DHT22;41041;43.162;20.538;2023-01-10T01:23:41;230.80;2252.80
55151;DHT22;41041;43.162;20.538;2023-01-10T01:26:07;230.80;2252.80
55151;DHT22;41041;43.162;20.538;2023-01-10T01:31:55;230.80;2252.80
55151;DHT22;41041;43.162;20.538;2023-01-10T01:34:21;230.80;2252.80
55151;DHT22;41041;43.162;20.538;2023-01-10T01:36:47;230.80;2252.80
55151;DHT22;41041;43.162;20.538;2023-01-10T01:39:13;230.80;2252.80
55151;DHT22;41041;43.162;20.538;2023-01-10T01:41:38;230.80;2252.80
55151;DHT22;41041;43.162;20.538;2023-01-10T01:44:23;230.80;2252.80
55151;DHT22;41041;43.162;20.538;2023-01-10T01:46:59;230.80;2252.80
55151;DHT22;41041;43.162;20.538;2023-01-10T01:49:27;230.80;2252.80
55151;DHT22;41041;43.162;20.538;2023-01-10T01:51:59;230.90;2252.80
55151;DHT22;41041;43.162;20.538;2023-01-10T01:54:27;230.90;2252.80
55151;DHT22;41041;43.162;20.538;2023-01-10T01:57:29;230.80;2252.80
55151;DHT22;41041;43.162;20.538;2023-01-10T01:59:48;230.60;2252.80
55151;DHT22;41041;43.162;20.538;2023-01-10T02:02:29;230.60;2252.80
55151;DHT22;41041;43.162;20.538;2023-01-10T02:08:18;230.60;2252.80
55151;DHT22;41041;43.162;20.538;2023-01-10T02:10:54;230.40;2252.80
55151;DHT22;41041;43.162;20.538;2023-01-10T02:13:24;230.40;2252.80
55151;DHT22;41041;43.162;20.538;2023-01-10T02:15:50;230.50;2252.80
55151;DHT22;41041;43.162;20.538;2023-01-10T02:18:16;230.50;2252.80
55151;DHT22;41041;43.162;20.538;2023-01-10T02:24:30;230.60;2252.80
55151;DHT22;41041;43.162;20.538;2023-01-10T02:27:21;230.60;2252.80
55151;DHT22;41041;43.162;20.538;2023-01-10T02:46:32;230.70;2252.80
55151;DHT22;41041;43.162;20.538;2023-01-10T02:48:59;230.60;2252.80
55151;DHT22;41041;43.162;20.538;2023-01-10T02:51:27;230.60;2252.80
55151;DHT22;41041;43.162;20.538;2023-01-10T02:54:01;230.60;2252.80
55151;DHT22;41041;43.162;20.538;2023-01-10T03:00:14;230.70;2252.80
55151;DHT22;41041;43.162;20.538;2023-01-10T03:05:39;230.60;2252.80
55151;DHT22;41041;43.162;20.538;2023-01-10T03:14:10;230.60;2252.80
55151;DHT22;41041;43.162;20.538;2023-01-10T03:16:39;230.60;2252.80
55151;DHT22;41041;43.162;20.538;2023-01-10T03:19:19;230.50;2252.80
55151;DHT22;41041;43.162;20.538;2023-01-10T03:21:46;230.50;2252.80
55151;DHT22;41041;43.162;20.538;2023-01-10T03:24:18;205.70;2252.80
55151;DHT22;41041;43.162;20.538;2023-01-10T03:27:05;230.40;2252.80
55151;DHT22;41041;43.162;20.538;2023-01-10T03:32:54;205.60;2252.80
55151;DHT22;41041;43.162;20.538;2023-01-10T03:35:30;230.40;2252.80
55151;DHT22;41041;43.162;20.538;2023-01-10T03:38:09;230.40;2252.80
55151;DHT22;41041;43.162;20.538;2023-01-10T03:43:36;230.40;2252.80
55151;DHT22;41041;43.162;20.538;2023-01-10T03:46:47;230.40;2252.80
55151;DHT22;41041;43.162;20.538;2023-01-10T03:49:15;230.50;2252.80
55151;DHT22;41041;43.162;20.538;2023-01-10T03:51:41;230.40;2252.80
55151;DHT22;41041;43.162;20.538;2023-01-10T03:54:07;230.50;2252.80
55151;DHT22;41041;43.162;20.538;2023-01-10T03:56:47;230.50;2252.80
55151;DHT22;41041;43.162;20.538;2023-01-10T03:59:15;205.70;2252.80
55151;DHT22;41041;43.162;20.538;2023-01-10T04:01:41;205.30;2252.80
55151;DHT22;41041;43.162;20.538;2023-01-10T04:04:07;205.20;2252.80
55151;DHT22;41041;43.162;20.538;2023-01-10T04:06:33;205.20;2252.80
55151;DHT22;41041;43.162;20.538;2023-01-10T04:08:59;205.30;2252.80
55151;DHT22;41041;43.162;20.538;2023-01-10T04:11:24;205.40;2252.80
55151;DHT22;41041;43.162;20.538;2023-01-10T04:13:50;205.40;2252.80
55151;DHT22;41041;43.162;20.538;2023-01-10T04:16:16;205.50;2252.80
55151;DHT22;41041;43.162;20.538;2023-01-10T04:18:41;205.50;2252.80
55151;DHT22;41041;43.162;20.538;2023-01-10T04:21:07;205.60;2252.80
55151;DHT22;41041;43.162;20.538;2023-01-10T04:23:33;205.60;2252.80
55151;DHT22;41041;43.162;20.538;2023-01-10T04:25:58;205.60;2252.80
55151;DHT22;41041;43.162;20.538;2023-01-10T04:28:24;205.60;2252.80
55151;DHT22;41041;43.162;20.538;2023-01-10T04:30:50;205.60;2252.80
55151;DHT22;41041;43.162;20.538;2023-01-10T04:33:15;205.60;2252.80
55151;DHT22;41041;43.162;20.538;2023-01-10T04:35:46;205.60;2252.80
55151;DHT22;41041;43.162;20.538;2023-01-10T04:41:34;205.20;2252.80
55151;DHT22;41041;43.162;20.538;2023-01-10T04:44:00;205.30;2252.80
55151;DHT22;41041;43.162;20.538;2023-01-10T04:46:26;205.30;2252.80
55151;DHT22;41041;43.162;20.538;2023-01-10T04:48:51;205.30;2252.80
55151;DHT22;41041;43.162;20.538;2023-01-10T04:51:17;205.30;2252.80
55151;DHT22;41041;43.162;20.538;2023-01-10T04:53:43;205.40;2252.80
55151;DHT22;41041;43.162;20.538;2023-01-10T04:56:14;205.40;2252.80
55151;DHT22;41041;43.162;20.538;2023-01-10T04:58:40;205.40;2252.80
55151;DHT22;41041;43.162;20.538;2023-01-10T05:01:15;205.40;2252.80
55151;DHT22;41041;43.162;20.538;2023-01-10T05:03:41;205.30;2252.80
55151;DHT22;41041;43.162;20.538;2023-01-10T05:06:07;205.20;2252.80
55151;DHT22;41041;43.162;20.538;2023-01-10T05:08:34;205.30;2252.80
55151;DHT22;41041;43.162;20.538;2023-01-10T05:11:00;205.30;2252.80
55151;DHT22;41041;43.162;20.538;2023-01-10T05:13:26;205.30;2252.80
55151;DHT22;41041;43.162;20.538;2023-01-10T05:15:56;205.30;2252.80
55151;DHT22;41041;43.162;20.538;2023-01-10T05:18:25;205.30;2252.80
55151;DHT22;41041;43.162;20.538;2023-01-10T05:20:52;205.20;2252.80
55151;DHT22;41041;43.162;20.538;2023-01-10T05:23:17;205.20;2252.80
55151;DHT22;41041;43.162;20.538;2023-01-10T05:25:46;205.20;2252.80
55151;DHT22;41041;43.162;20.538;2023-01-10T05:28:14;205.30;2252.80
55151;DHT22;41041;43.162;20.538;2023-01-10T05:30:40;205.20;2252.80
55151;DHT22;41041;43.162;20.538;2023-01-10T05:33:08;205.20;2252.80
55151;DHT22;41041;43.162;20.538;2023-01-10T05:35:34;205.10;2252.80
55151;DHT22;41041;43.162;20.538;2023-01-10T05:56:26;180.10;2252.80
55151;DHT22;41041;43.162;20.538;2023-01-10T05:58:56;179.70;2252.80
55151;DHT22;41041;43.162;20.538;2023-01-10T06:01:29;179.70;2252.80
55151;DHT22;41041;43.162;20.538;2023-01-10T06:03:55;179.80;2252.80
55151;DHT22;41041;43.162;20.538;2023-01-10T06:06:23;179.90;2252.80
55151;DHT22;41041;43.162;20.538;2023-01-10T06:09:00;180.00;2252.80
55151;DHT22;41041;43.162;20.538;2023-01-10T06:11:29;179.90;2252.80
55151;DHT22;41041;43.162;20.538;2023-01-10T06:13:56;179.60;2252.80
55151;DHT22;41041;43.162;20.538;2023-01-10T06:16:22;179.80;2252.80
55151;DHT22;41041;43.162;20.538;2023-01-10T06:18:49;180.00;2252.80
55151;DHT22;41041;43.162;20.538;2023-01-10T06:21:15;180.10;2252.80
55151;DHT22;41041;43.162;20.538;2023-01-10T06:23:43;204.80;2252.80
55151;DHT22;41041;43.162;20.538;2023-01-10T06:26:09;204.90;2252.80
55151;DHT22;41041;43.162;20.538;2023-01-10T06:28:36;205.00;2252.80
55151;DHT22;41041;43.162;20.538;2023-01-10T06:34:31;205.10;2252.80
55151;DHT22;41041;43.162;20.538;2023-01-10T06:59:13;205.10;2252.80
55151;DHT22;41041;43.162;20.538;2023-01-10T07:01:39;205.10;2252.80
55151;DHT22;41041;43.162;20.538;2023-01-10T07:04:26;204.90;2252.80
55151;DHT22;41041;43.162;20.538;2023-01-10T07:06:54;204.90;2252.80
55151;DHT22;41041;43.162;20.538;2023-01-10T07:09:21;204.80;2252.80
55151;DHT22;41041;43.162;20.538;2023-01-10T07:11:49;205.00;2252.80
55151;DHT22;41041;43.162;20.538;2023-01-10T07:14:15;205.10;2252.80
55151;DHT22;41041;43.162;20.538;2023-01-10T07:16:44;205.20;2252.80
55151;DHT22;41041;43.162;20.538;2023-01-10T08:10:29;205.70;2252.80
55151;DHT22;41041;43.162;20.538;2023-01-10T08:12:55;205.50;2252.80
55151;DHT22;41041;43.162;20.538;2023-01-10T08:15:23;205.50;2252.80
55151;DHT22;41041;43.162;20.538;2023-01-10T08:17:49;205.70;2252.80
55151;DHT22;41041;43.162;20.538;2023-01-10T08:20:15;230.40;2252.80
55151;DHT22;41041;43.162;20.538;2023-01-10T08:22:41;230.40;2252.80
55151;DHT22;41041;43.162;20.538;2023-01-10T08:25:07;230.50;2252.80
55151;DHT22;41041;43.162;20.538;2023-01-10T08:27:33;205.70;2252.80
55151;DHT22;41041;43.162;20.538;2023-01-10T08:29:59;205.60;2252.80
55151;DHT22;41041;43.162;20.538;2023-01-10T08:32:24;205.60;2252.80
55151;DHT22;41041;43.162;20.538;2023-01-10T08:34:50;205.50;2252.80
55151;DHT22;41041;43.162;20.538;2023-01-10T08:40:38;205.60;2252.80
55151;DHT22;41041;43.162;20.538;2023-01-10T08:43:10;205.60;2252.80
55151;DHT22;41041;43.162;20.538;2023-01-10T08:45:37;205.60;2252.80
55151;DHT22;41041;43.162;20.538;2023-01-10T08:48:04;205.70;2252.80
55151;DHT22;41041;43.162;20.538;2023-01-10T08:50:30;230.60;2252.80
55151;DHT22;41041;43.162;20.538;2023-01-10T08:52:59;230.50;2252.80
55151;DHT22;41041;43.162;20.538;2023-01-10T08:55:27;230.40;2252.80
55151;DHT22;41041;43.162;20.538;2023-01-10T09:01:15;230.50;2252.80
55151;DHT22;41041;43.162;20.538;2023-01-10T09:03:41;230.60;2252.80
55151;DHT22;41041;43.162;20.538;2023-01-10T09:06:08;230.70;2252.80
55151;DHT22;41041;43.162;20.538;2023-01-10T09:11:55;230.70;2252.80
55151;DHT22;41041;43.162;20.538;2023-01-10T10:21:39;205.70;2252.80
55151;DHT22;41041;43.162;20.538;2023-01-10T10:24:26;205.10;2252.80
55151;DHT22;41041;43.162;20.538;2023-01-10T10:27:08;205.00;2252.80
55151;DHT22;41041;43.162;20.538;2023-01-10T10:36:00;180.10;2252.80
55151;DHT22;41041;43.162;20.538;2023-01-10T10:38:34;179.80;2252.80
